Parker, South Dakota
Current Conditions -  °F | °C
As of 8:56 PM on Friday 19 Dec 2014 (Local Time) from KFSD Reporting Station
Overcast Overcast  
Wind Chill: 22°   Ceiling: 800
Heat Index: 31°   Visibility: 9mi
Dew Point: 28°   Wind: 10mph
Humidity: 89%   Direction: 190°S
Pressure: 30.08"   Gusts: NA
Location:  43.4°N, 97.14°W
Report Text: KFSD 200256Z 19009KT 9SM OVC008 M01/M02 A3008 RMK AO2 SLP204 T10061022 57003
Loading
Personal Weather Stations






























Interactive Weather Map New forecast layout! Learn more

10-Day Weather Forecast

Advertisements
Track Severe Weather on mobile